createdAt,value
2023-06-04T00:00:13.792Z,249.53
2023-06-04T00:01:16.599Z,249.65
2023-06-04T00:02:13.911Z,249.27
2023-06-04T00:03:14.020Z,250.00
2023-06-04T00:04:13.957Z,248.87
2023-06-04T00:05:13.986Z,249.81
2023-06-04T00:06:14.006Z,250.00
2023-06-04T00:07:14.070Z,249.79
2023-06-04T00:08:14.072Z,249.92
2023-06-04T00:09:14.095Z,249.20
2023-06-04T00:10:14.103Z,250.00
2023-06-04T00:11:14.188Z,250.00
2023-06-04T00:12:14.160Z,249.57
2023-06-04T00:13:14.208Z,249.82
2023-06-04T00:14:14.227Z,248.37
2023-06-04T00:15:14.242Z,248.15
2023-06-04T00:16:14.319Z,246.79
2023-06-04T00:17:14.310Z,245.85
2023-06-04T00:18:14.364Z,246.11
2023-06-04T00:19:14.367Z,245.81
2023-06-04T00:20:14.383Z,245.18
2023-06-04T00:21:14.413Z,245.49
2023-06-04T00:22:14.452Z,244.77
2023-06-04T00:23:14.473Z,246.02
2023-06-04T00:24:14.521Z,246.51
2023-06-04T00:25:14.492Z,246.81
2023-06-04T00:26:14.521Z,248.13
2023-06-04T00:27:14.554Z,248.48
2023-06-04T00:28:14.604Z,249.01
2023-06-04T00:29:14.607Z,249.10
2023-06-04T00:30:14.626Z,249.82
2023-06-04T00:31:14.724Z,249.33
2023-06-04T00:32:14.806Z,249.85
2023-06-04T00:33:14.781Z,249.26
2023-06-04T00:34:14.737Z,247.99
2023-06-04T00:35:14.755Z,247.03
2023-06-04T00:36:14.786Z,246.00
2023-06-04T00:37:14.838Z,243.06
2023-06-04T00:38:14.842Z,241.94
2023-06-04T00:39:14.847Z,242.80
2023-06-04T00:40:14.888Z,242.77
2023-06-04T00:41:14.896Z,242.53
2023-06-04T00:42:14.940Z,242.39
2023-06-04T00:43:14.976Z,242.57
2023-06-04T00:44:14.983Z,242.58
2023-06-04T00:45:15.036Z,244.40
2023-06-04T00:46:15.173Z,244.66
2023-06-04T00:47:15.222Z,244.09
2023-06-04T00:48:15.328Z,242.26
2023-06-04T00:49:15.391Z,241.50
2023-06-04T00:50:15.502Z,242.70
2023-06-04T00:51:15.588Z,242.66
2023-06-04T00:52:15.695Z,244.20
2023-06-04T00:53:15.734Z,244.78
2023-06-04T00:54:15.852Z,245.25
2023-06-04T00:55:15.940Z,245.66
2023-06-04T00:56:15.995Z,245.88
2023-06-04T00:57:16.080Z,244.54
2023-06-04T00:58:16.123Z,244.56
2023-06-04T00:59:16.233Z,241.61
2023-06-04T01:00:16.291Z,240.89
2023-06-04T01:01:16.441Z,239.20
2023-06-04T01:02:16.446Z,240.08
2023-06-04T01:03:16.552Z,237.41
2023-06-04T01:04:16.570Z,235.21
2023-06-04T01:05:16.643Z,235.18
2023-06-04T01:06:16.695Z,234.47
2023-06-04T01:07:16.753Z,231.91
2023-06-04T01:08:16.801Z,231.20
2023-06-04T01:09:16.857Z,229.18
2023-06-04T01:10:16.931Z,227.72
2023-06-04T01:11:16.965Z,225.11
2023-06-04T01:12:17.009Z,224.84
2023-06-04T01:13:17.048Z,225.01
2023-06-04T01:14:17.136Z,223.83
2023-06-04T01:15:17.202Z,222.49
2023-06-04T01:16:17.234Z,222.09
2023-06-04T01:17:17.400Z,221.16
2023-06-04T01:18:17.355Z,217.97
2023-06-04T01:19:17.475Z,216.17
2023-06-04T01:20:17.545Z,216.37
2023-06-04T01:21:17.643Z,213.87
2023-06-04T01:22:17.763Z,213.05
2023-06-04T01:23:17.820Z,214.16
2023-06-04T01:24:17.919Z,212.87
2023-06-04T01:25:17.971Z,209.82
2023-06-04T01:26:18.087Z,209.95
2023-06-04T01:27:18.126Z,208.75
2023-06-04T01:28:18.268Z,207.41
2023-06-04T01:29:18.239Z,208.03
2023-06-04T01:30:18.273Z,205.96
2023-06-04T01:31:18.342Z,205.27
2023-06-04T01:32:18.718Z,204.33
2023-06-04T01:33:18.404Z,203.72
2023-06-04T01:34:18.477Z,204.19
2023-06-04T01:35:18.524Z,202.46
2023-06-04T01:36:18.533Z,203.01
2023-06-04T01:37:18.558Z,202.21
2023-06-04T01:38:18.608Z,201.15
2023-06-04T01:39:18.648Z,200.16
2023-06-04T01:40:18.694Z,200.56
2023-06-04T01:41:18.748Z,197.32
2023-06-04T01:42:18.803Z,198.02
2023-06-04T01:43:18.832Z,196.21
2023-06-04T01:44:18.876Z,196.87
2023-06-04T01:45:18.930Z,195.02
2023-06-04T01:46:18.999Z,195.83
2023-06-04T01:47:19.004Z,196.85
2023-06-04T01:48:19.053Z,196.48
2023-06-04T01:49:19.119Z,198.69
2023-06-04T01:50:19.158Z,199.32
2023-06-04T01:51:19.208Z,201.41
2023-06-04T01:52:19.247Z,200.87
2023-06-04T01:53:19.287Z,200.28
2023-06-04T01:54:19.313Z,202.07
2023-06-04T01:55:19.350Z,201.20
2023-06-04T01:56:19.394Z,203.54
2023-06-04T01:57:19.476Z,204.81
2023-06-04T01:58:19.525Z,206.91
2023-06-04T01:59:19.537Z,208.65
2023-06-04T02:00:19.569Z,210.15
2023-06-04T02:01:19.656Z,210.77
2023-06-04T02:02:19.745Z,213.82
2023-06-04T02:03:19.888Z,214.57
2023-06-04T02:04:19.907Z,216.86
2023-06-04T02:05:19.949Z,218.41
2023-06-04T02:06:20.054Z,220.14
2023-06-04T02:07:20.101Z,219.79
2023-06-04T02:08:20.269Z,218.51
2023-06-04T02:09:20.275Z,218.93
2023-06-04T02:10:20.388Z,216.49
2023-06-04T02:11:20.468Z,214.42
2023-06-04T02:12:20.549Z,212.56
2023-06-04T02:13:20.662Z,210.89
2023-06-04T02:14:20.744Z,210.87
2023-06-04T02:15:20.818Z,208.52
2023-06-04T02:16:20.888Z,208.31
2023-06-04T02:17:20.911Z,208.40
2023-06-04T02:18:20.967Z,209.24
2023-06-04T02:19:21.014Z,210.65
2023-06-04T02:20:21.073Z,210.06
2023-06-04T02:21:21.113Z,209.44
2023-06-04T02:22:21.166Z,210.43
2023-06-04T02:23:21.241Z,210.46
2023-06-04T02:24:21.209Z,209.12
2023-06-04T02:25:21.261Z,210.01
2023-06-04T02:26:21.329Z,210.27
2023-06-04T02:27:21.320Z,211.08
2023-06-04T02:28:21.362Z,208.29
2023-06-04T02:29:21.375Z,206.27
2023-06-04T02:30:21.423Z,207.63
2023-06-04T02:31:21.497Z,206.78
2023-06-04T02:32:21.586Z,205.19
2023-06-04T02:33:21.552Z,203.52
2023-06-04T02:34:21.597Z,202.07
2023-06-04T02:35:21.636Z,201.46
2023-06-04T02:36:21.677Z,201.68
2023-06-04T02:37:21.714Z,198.54
2023-06-04T02:38:21.779Z,200.31
2023-06-04T02:39:21.922Z,204.18
2023-06-04T02:40:21.879Z,206.76
2023-06-04T02:41:21.930Z,206.33
2023-06-04T02:42:21.982Z,205.74
2023-06-04T02:43:22.021Z,203.94
2023-06-04T02:44:22.066Z,201.41
2023-06-04T02:45:22.124Z,200.24
2023-06-04T02:46:22.207Z,201.02
2023-06-04T02:47:22.204Z,201.91
2023-06-04T02:48:22.279Z,200.01
2023-06-04T02:49:22.304Z,198.56
2023-06-04T02:50:22.360Z,199.20
2023-06-04T02:51:22.427Z,197.83
2023-06-04T02:52:22.445Z,197.18
2023-06-04T02:53:22.518Z,197.26
2023-06-04T02:54:22.590Z,196.22
2023-06-04T02:55:22.635Z,195.06
2023-06-04T02:56:22.671Z,194.22
2023-06-04T02:57:22.723Z,193.10
2023-06-04T02:58:22.791Z,190.75
2023-06-04T02:59:22.872Z,190.39
2023-06-04T03:00:22.889Z,190.40
2023-06-04T03:01:22.991Z,189.23
2023-06-04T03:02:23.073Z,187.33
2023-06-04T03:03:23.187Z,187.78
2023-06-04T03:04:23.161Z,187.28
2023-06-04T03:05:23.227Z,187.14
2023-06-04T03:06:23.296Z,185.14
2023-06-04T03:07:23.341Z,185.92
2023-06-04T03:08:23.477Z,184.32
2023-06-04T03:09:23.498Z,182.85
2023-06-04T03:10:23.561Z,181.85
2023-06-04T03:11:23.623Z,181.40
2023-06-04T03:12:23.688Z,176.63
2023-06-04T03:13:23.780Z,174.71
2023-06-04T03:14:23.800Z,174.42
2023-06-04T03:15:23.895Z,173.82
2023-06-04T03:16:24.010Z,172.05
2023-06-04T03:17:24.039Z,171.07
2023-06-04T03:18:24.088Z,168.87
2023-06-04T03:19:24.167Z,170.52
2023-06-04T03:20:24.191Z,173.27
2023-06-04T03:21:24.320Z,173.70
2023-06-04T03:22:24.332Z,172.83
2023-06-04T03:23:24.383Z,170.93
2023-06-04T03:24:24.423Z,170.85
2023-06-04T03:25:24.464Z,170.32
2023-06-04T03:26:24.583Z,171.51
2023-06-04T03:27:24.608Z,174.20
2023-06-04T03:28:24.686Z,174.46
2023-06-04T03:29:24.758Z,175.89
2023-06-04T03:30:24.824Z,177.45
2023-06-04T03:31:24.888Z,180.91
2023-06-04T03:32:24.980Z,182.30
2023-06-04T03:33:24.985Z,180.05
2023-06-04T03:34:25.034Z,180.48
2023-06-04T03:35:25.101Z,179.58
2023-06-04T03:36:25.160Z,179.20
2023-06-04T03:37:25.236Z,180.63
2023-06-04T03:38:25.250Z,180.63
2023-06-04T03:39:25.335Z,181.10
2023-06-04T03:40:26.308Z,180.95
2023-06-04T03:41:25.435Z,181.78
2023-06-04T03:42:25.487Z,180.35
2023-06-04T03:43:25.563Z,182.56
2023-06-04T03:44:25.597Z,183.39
2023-06-04T03:45:25.657Z,182.48
2023-06-04T03:46:25.768Z,180.49
2023-06-04T03:47:25.789Z,180.05
2023-06-04T03:48:25.842Z,180.77
2023-06-04T03:49:25.882Z,180.01
2023-06-04T03:50:25.946Z,182.43
2023-06-04T03:51:26.002Z,182.38
2023-06-04T03:52:26.093Z,185.04
2023-06-04T03:53:26.165Z,183.47
2023-06-04T03:54:26.201Z,185.28
2023-06-04T03:55:26.288Z,187.34
2023-06-04T03:56:26.338Z,186.97
2023-06-04T03:57:26.397Z,188.46
2023-06-04T03:58:26.437Z,189.32
2023-06-04T03:59:26.501Z,189.28
2023-06-04T04:00:26.562Z,190.28
2023-06-04T04:01:26.630Z,190.53
2023-06-04T04:02:26.816Z,190.61
2023-06-04T04:03:26.907Z,189.12
2023-06-04T04:04:26.899Z,186.61
2023-06-04T04:05:26.839Z,187.60
2023-06-04T04:06:26.853Z,186.82
2023-06-04T04:07:26.935Z,184.68
2023-06-04T04:08:26.984Z,185.48
2023-06-04T04:09:27.021Z,186.48
2023-06-04T04:10:27.089Z,188.50
2023-06-04T04:11:27.117Z,191.43
2023-06-04T04:12:27.257Z,194.10
2023-06-04T04:13:27.258Z,194.84
2023-06-04T04:14:27.258Z,193.75
2023-06-04T04:15:27.322Z,192.30
2023-06-04T04:16:27.412Z,193.73
2023-06-04T04:17:27.466Z,191.25
2023-06-04T04:18:27.487Z,191.89
2023-06-04T04:19:27.546Z,191.71
2023-06-04T04:20:27.557Z,195.31
2023-06-04T04:21:27.637Z,193.93
2023-06-04T04:22:27.655Z,194.82
2023-06-04T04:23:27.756Z,195.95
2023-06-04T04:24:27.795Z,198.03
2023-06-04T04:25:27.840Z,197.32
2023-06-04T04:26:27.906Z,196.86
2023-06-04T04:27:27.945Z,196.83
2023-06-04T04:28:28.032Z,196.61
2023-06-04T04:29:28.058Z,195.80
2023-06-04T04:30:28.082Z,197.16
2023-06-04T04:31:28.203Z,194.21
2023-06-04T04:32:28.235Z,192.23
2023-06-04T04:33:28.304Z,192.41
2023-06-04T04:34:28.399Z,193.17
2023-06-04T04:35:28.468Z,192.47
2023-06-04T04:36:28.558Z,192.00
2023-06-04T04:37:28.640Z,192.23
2023-06-04T04:38:28.726Z,192.17
2023-06-04T04:39:28.846Z,193.56
2023-06-04T04:40:28.918Z,194.55
2023-06-04T04:41:29.043Z,192.47
2023-06-04T04:42:29.142Z,192.92
2023-06-04T04:43:29.188Z,192.52
2023-06-04T04:44:29.289Z,191.62
2023-06-04T04:45:29.340Z,189.77
2023-06-04T04:46:29.490Z,189.08
2023-06-04T04:47:29.432Z,191.46
2023-06-04T04:48:29.477Z,192.03
2023-06-04T04:49:29.591Z,192.39
2023-06-04T04:50:29.559Z,195.15
2023-06-04T04:51:29.614Z,192.23
2023-06-04T04:52:29.649Z,193.15
2023-06-04T04:53:29.713Z,192.27
2023-06-04T04:54:29.742Z,192.41
2023-06-04T04:55:29.796Z,188.17
2023-06-04T04:56:29.821Z,187.57
2023-06-04T04:57:29.877Z,187.78
2023-06-04T04:58:29.907Z,187.88
2023-06-04T04:59:29.964Z,189.56
2023-06-04T05:00:29.992Z,186.07
2023-06-04T05:01:30.072Z,185.09
2023-06-04T05:02:30.118Z,185.57
2023-06-04T05:03:30.127Z,185.06
2023-06-04T05:04:30.226Z,184.33
2023-06-04T05:05:30.248Z,185.00
2023-06-04T05:06:30.259Z,183.04
2023-06-04T05:07:30.331Z,184.25
2023-06-04T05:08:30.348Z,184.61
2023-06-04T05:09:30.414Z,183.14
2023-06-04T05:10:30.474Z,181.98
2023-06-04T05:11:30.506Z,180.41
2023-06-04T05:12:30.543Z,179.27
2023-06-04T05:13:30.598Z,180.99
2023-06-04T05:14:30.648Z,179.57
2023-06-04T05:15:30.739Z,177.74
2023-06-04T05:16:30.778Z,178.67
2023-06-04T05:17:30.896Z,178.10
2023-06-04T05:18:30.846Z,179.67
2023-06-04T05:19:30.869Z,180.03
2023-06-04T05:20:30.945Z,178.61
2023-06-04T05:21:30.996Z,181.70
2023-06-04T05:22:31.044Z,183.06
2023-06-04T05:23:31.089Z,179.13
2023-06-04T05:24:31.099Z,175.36
2023-06-04T05:25:31.188Z,174.45
2023-06-04T05:26:31.220Z,175.53
2023-06-04T05:27:31.241Z,175.76
2023-06-04T05:28:31.311Z,172.99
2023-06-04T05:29:31.359Z,172.09
2023-06-04T05:30:31.390Z,170.94
2023-06-04T05:31:31.489Z,171.10
2023-06-04T05:32:31.553Z,170.39
2023-06-04T05:33:31.569Z,168.92
2023-06-04T05:34:31.638Z,164.90
2023-06-04T05:35:31.653Z,164.44
2023-06-04T05:36:31.742Z,161.63
2023-06-04T05:37:31.792Z,159.84
2023-06-04T05:38:31.902Z,159.32
2023-06-04T05:39:31.914Z,163.40
2023-06-04T05:40:31.950Z,161.31
2023-06-04T05:41:32.017Z,160.05
2023-06-04T05:42:32.040Z,158.82
2023-06-04T05:43:32.117Z,158.67
2023-06-04T05:44:32.162Z,160.28
2023-06-04T05:45:32.220Z,157.82
2023-06-04T05:46:32.391Z,158.44
2023-06-04T05:47:32.415Z,160.72
2023-06-04T05:48:32.444Z,162.15
2023-06-04T05:49:32.497Z,160.96
2023-06-04T05:50:32.541Z,161.05
2023-06-04T05:51:32.614Z,163.42
2023-06-04T05:52:32.648Z,161.79
2023-06-04T05:53:32.715Z,163.69
2023-06-04T05:54:33.363Z,161.98
2023-06-04T05:55:32.821Z,161.44
2023-06-04T05:56:32.886Z,159.45
2023-06-04T05:57:32.906Z,158.32
2023-06-04T05:58:32.966Z,158.82
2023-06-04T05:59:33.043Z,160.06
2023-06-04T06:00:33.101Z,160.47
2023-06-04T06:01:33.172Z,158.30
2023-06-04T06:02:33.333Z,158.48
2023-06-04T06:03:33.324Z,159.60
2023-06-04T06:04:33.391Z,159.26
2023-06-04T06:05:33.354Z,159.40
2023-06-04T06:06:33.421Z,158.90
2023-06-04T06:07:33.560Z,160.22
2023-06-04T06:08:33.552Z,160.91
2023-06-04T06:09:33.579Z,159.63
2023-06-04T06:10:33.613Z,158.03
2023-06-04T06:11:33.683Z,159.16
2023-06-04T06:12:33.740Z,160.93
2023-06-04T06:13:33.779Z,158.93
2023-06-04T06:14:33.839Z,160.55
2023-06-04T06:15:33.926Z,161.90
2023-06-04T06:16:33.937Z,158.56
2023-06-04T06:17:34.073Z,156.74
2023-06-04T06:18:34.124Z,158.97
2023-06-04T06:19:34.120Z,159.58
2023-06-04T06:20:34.188Z,159.16
2023-06-04T06:21:34.274Z,158.00
2023-06-04T06:22:34.292Z,157.59
2023-06-04T06:23:34.377Z,158.76
2023-06-04T06:24:34.435Z,158.28
2023-06-04T06:25:34.474Z,155.71
2023-06-04T06:26:34.546Z,155.44
2023-06-04T06:27:34.599Z,157.17
2023-06-04T06:28:34.657Z,154.49
2023-06-04T06:29:34.708Z,156.55
2023-06-04T06:30:34.794Z,158.08
2023-06-04T06:31:34.915Z,158.69
2023-06-04T06:32:34.955Z,158.78
2023-06-04T06:33:34.969Z,160.83
2023-06-04T06:34:35.018Z,159.32
2023-06-04T06:35:35.073Z,158.97
2023-06-04T06:36:35.149Z,159.84
2023-06-04T06:37:35.185Z,156.60
2023-06-04T06:38:35.232Z,156.61
2023-06-04T06:39:35.278Z,155.12
2023-06-04T06:40:35.302Z,155.51
2023-06-04T06:41:35.361Z,153.70
2023-06-04T06:42:35.427Z,151.47
2023-06-04T06:43:35.463Z,152.88
2023-06-04T06:44:35.510Z,150.90
2023-06-04T06:45:37.871Z,146.68
2023-06-04T06:46:35.673Z,145.69
2023-06-04T06:47:35.646Z,143.90
2023-06-04T06:48:35.719Z,144.87
2023-06-04T06:49:35.773Z,145.95
2023-06-04T06:50:35.823Z,145.80
2023-06-04T06:51:35.892Z,144.72
2023-06-04T06:52:35.972Z,150.41
2023-06-04T06:53:36.002Z,149.90
2023-06-04T06:54:36.057Z,147.56
2023-06-04T06:55:36.120Z,145.10
2023-06-04T06:56:36.146Z,144.28
2023-06-04T06:57:36.197Z,140.57
2023-06-04T06:58:36.222Z,140.04
2023-06-04T06:59:36.260Z,135.18
2023-06-04T07:00:36.372Z,135.62
2023-06-04T07:01:36.522Z,138.00
2023-06-04T07:02:36.488Z,137.96
2023-06-04T07:03:36.473Z,138.57
2023-06-04T07:04:36.467Z,141.18
2023-06-04T07:05:36.511Z,141.22
2023-06-04T07:06:36.530Z,138.57
2023-06-04T07:07:36.607Z,136.40
2023-06-04T07:08:36.624Z,140.15
2023-06-04T07:09:36.681Z,140.09
2023-06-04T07:10:36.735Z,140.16
2023-06-04T07:11:36.761Z,139.46
2023-06-04T07:12:36.815Z,139.16
2023-06-04T07:13:36.866Z,140.25
2023-06-04T07:14:36.922Z,145.57
2023-06-04T07:15:36.934Z,149.74
2023-06-04T07:16:37.033Z,155.63
2023-06-04T07:17:37.133Z,158.31
2023-06-04T07:18:37.110Z,158.74
2023-06-04T07:19:37.197Z,160.24
2023-06-04T07:20:37.284Z,161.60
2023-06-04T07:21:37.369Z,161.86
2023-06-04T07:22:37.429Z,164.18
2023-06-04T07:23:37.548Z,156.48
2023-06-04T07:24:37.597Z,154.74
2023-06-04T07:25:37.690Z,151.25
2023-06-04T07:26:37.779Z,150.00
2023-06-04T07:27:37.884Z,151.04
2023-06-04T07:28:37.943Z,153.89
2023-06-04T07:29:38.063Z,158.23
2023-06-04T07:30:38.161Z,164.04
2023-06-04T07:31:38.249Z,166.55
2023-06-04T07:32:38.383Z,164.73
2023-06-04T07:33:38.389Z,160.85
2023-06-04T07:34:38.477Z,157.60
2023-06-04T07:35:38.572Z,155.15
2023-06-04T07:36:39.399Z,157.90
2023-06-04T07:37:38.708Z,162.45
2023-06-04T07:38:38.821Z,163.86
2023-06-04T07:39:38.873Z,166.07
2023-06-04T07:40:38.946Z,168.78
2023-06-04T07:41:39.065Z,168.97
2023-06-04T07:42:39.115Z,172.76
2023-06-04T07:43:39.205Z,175.83
2023-06-04T07:44:39.320Z,177.68
2023-06-04T07:45:39.385Z,179.35
2023-06-04T07:46:39.674Z,182.77
2023-06-04T07:47:39.680Z,183.44
2023-06-04T07:48:39.623Z,186.47
2023-06-04T07:49:44.592Z,185.60
2023-06-04T07:50:41.638Z,185.69
2023-06-04T07:51:39.770Z,183.14
2023-06-04T07:52:39.781Z,180.04
2023-06-04T07:53:39.851Z,179.81
2023-06-04T07:54:39.864Z,180.98
2023-06-04T07:55:39.862Z,180.11
2023-06-04T07:56:39.917Z,177.42
2023-06-04T07:57:39.952Z,177.92
2023-06-04T07:58:39.981Z,179.86
2023-06-04T07:59:39.993Z,181.20
2023-06-04T08:00:40.071Z,183.66
2023-06-04T08:01:40.111Z,183.01
2023-06-04T08:02:40.298Z,184.74
2023-06-04T08:03:40.420Z,184.75
2023-06-04T08:04:40.425Z,184.23
2023-06-04T08:05:40.408Z,180.30
2023-06-04T08:06:40.451Z,170.42
2023-06-04T08:07:40.534Z,163.82
2023-06-04T08:08:40.632Z,150.13
2023-06-04T08:09:40.704Z,144.54
2023-06-04T08:10:40.767Z,139.34
2023-06-04T08:11:40.852Z,137.51
2023-06-04T08:12:40.922Z,140.51
2023-06-04T08:13:40.967Z,146.54
2023-06-04T08:14:41.060Z,153.84
2023-06-04T08:15:41.141Z,158.66
2023-06-04T08:16:41.251Z,162.36
2023-06-04T08:17:41.358Z,165.23
2023-06-04T08:18:41.456Z,169.29
2023-06-04T08:19:41.437Z,173.43
2023-06-04T08:20:41.507Z,175.53
2023-06-04T08:21:41.548Z,170.17
2023-06-04T08:22:41.644Z,160.34
2023-06-04T08:23:41.778Z,151.41
2023-06-04T08:24:41.801Z,143.45
2023-06-04T08:25:41.868Z,144.39
2023-06-04T08:26:41.955Z,147.67
2023-06-04T08:27:42.003Z,149.68
2023-06-04T08:28:42.111Z,152.25
2023-06-04T08:29:42.164Z,153.64
2023-06-04T08:30:42.199Z,157.58
2023-06-04T08:31:42.354Z,159.92
2023-06-04T08:32:42.407Z,159.55
2023-06-04T08:33:42.377Z,160.29
2023-06-04T08:34:42.405Z,163.70
2023-06-04T08:35:42.456Z,163.77
2023-06-04T08:36:42.486Z,152.57
2023-06-04T08:37:42.563Z,131.87
2023-06-04T08:38:43.107Z,123.09
2023-06-04T08:39:42.628Z,121.79
2023-06-04T08:40:42.683Z,108.97
2023-06-04T08:41:42.755Z,101.67
2023-06-04T08:42:42.818Z,102.78
2023-06-04T08:43:42.812Z,94.93
2023-06-04T08:44:42.880Z,88.17
2023-06-04T08:45:43.008Z,83.44
2023-06-04T08:46:43.025Z,80.70
2023-06-04T08:47:43.123Z,75.13
2023-06-04T08:48:43.158Z,75.97
2023-06-04T08:49:43.258Z,80.97
2023-06-04T08:50:43.306Z,87.09
2023-06-04T08:51:43.359Z,91.22
2023-06-04T08:52:43.429Z,97.04
2023-06-04T08:53:43.542Z,99.88
2023-06-04T08:54:43.601Z,104.22
2023-06-04T08:55:43.674Z,107.30
2023-06-04T08:56:43.714Z,111.46
2023-06-04T08:57:43.804Z,112.22
2023-06-04T08:58:43.850Z,107.77
2023-06-04T08:59:43.900Z,106.21
2023-06-04T09:00:43.971Z,109.59
2023-06-04T09:01:44.092Z,111.22
2023-06-04T09:02:44.161Z,114.13
2023-06-04T09:03:44.176Z,115.97
2023-06-04T09:04:44.209Z,116.32
2023-06-04T09:05:44.295Z,118.95
2023-06-04T09:06:44.370Z,127.72
2023-06-04T09:07:44.404Z,130.49
2023-06-04T09:08:48.728Z,109.76
2023-06-04T09:09:45.570Z,101.17
2023-06-04T09:10:44.476Z,97.26
2023-06-04T09:11:44.497Z,95.86
2023-06-04T09:12:44.540Z,99.37
2023-06-04T09:13:44.547Z,102.95
2023-06-04T09:14:44.573Z,109.32
2023-06-04T09:15:44.648Z,115.00
2023-06-04T09:16:44.605Z,115.68
2023-06-04T09:17:44.722Z,120.55
2023-06-04T09:18:44.675Z,124.76
2023-06-04T09:19:44.685Z,131.41
2023-06-04T09:20:44.704Z,136.27
2023-06-04T09:21:44.740Z,139.88
2023-06-04T09:22:44.767Z,144.51
2023-06-04T09:23:44.775Z,148.18
2023-06-04T09:24:44.795Z,147.97
2023-06-04T09:25:44.810Z,150.91
2023-06-04T09:26:44.806Z,154.78
2023-06-04T09:27:44.843Z,155.16
2023-06-04T09:28:44.852Z,157.67
2023-06-04T09:29:44.899Z,161.23
2023-06-04T09:30:44.907Z,161.95
2023-06-04T09:31:45.174Z,167.48
2023-06-04T09:32:45.040Z,168.36
2023-06-04T09:33:45.064Z,172.00
2023-06-04T09:34:45.098Z,169.32
2023-06-04T09:35:45.136Z,170.27
2023-06-04T09:36:45.231Z,170.35
2023-06-04T09:37:45.257Z,166.93
2023-06-04T09:38:45.285Z,170.91
2023-06-04T09:39:45.318Z,172.17
2023-06-04T09:40:45.352Z,170.73
2023-06-04T09:41:45.427Z,161.58
2023-06-04T09:42:45.436Z,158.97
2023-06-04T09:43:45.468Z,161.94
2023-06-04T09:44:45.547Z,159.89
2023-06-04T09:45:45.560Z,158.90
2023-06-04T09:46:45.688Z,155.77
2023-06-04T09:47:45.739Z,152.19
2023-06-04T09:48:45.645Z,155.41
2023-06-04T09:49:45.706Z,159.24
2023-06-04T09:50:45.763Z,161.74
2023-06-04T09:51:45.766Z,164.89
2023-06-04T09:52:45.805Z,166.53
2023-06-04T09:53:45.808Z,168.22
2023-06-04T09:54:45.873Z,169.34
2023-06-04T09:55:45.897Z,173.34
2023-06-04T09:56:45.938Z,174.37
2023-06-04T09:57:45.985Z,175.68
2023-06-04T09:58:46.023Z,178.08
2023-06-04T09:59:46.053Z,179.48
2023-06-04T10:00:46.200Z,178.88
2023-06-04T10:01:46.148Z,173.42
2023-06-04T10:02:46.220Z,130.41
2023-06-04T10:03:46.211Z,108.03
2023-06-04T10:04:46.217Z,98.21
2023-06-04T10:05:46.249Z,96.54
2023-06-04T10:06:46.279Z,105.36
2023-06-04T10:07:46.308Z,122.08
2023-06-04T10:08:46.373Z,132.62
2023-06-04T10:09:46.390Z,140.67
2023-06-04T10:10:46.434Z,151.80
2023-06-04T10:11:46.487Z,155.54
2023-06-04T10:12:46.514Z,160.80
2023-06-04T10:13:46.570Z,165.64
2023-06-04T10:14:46.576Z,171.01
2023-06-04T10:15:46.579Z,176.77
2023-06-04T10:16:46.675Z,177.99
2023-06-04T10:17:46.679Z,180.46
2023-06-04T10:18:46.690Z,183.18
2023-06-04T10:19:46.701Z,180.69
2023-06-04T10:20:46.761Z,179.88
2023-06-04T10:21:46.779Z,177.88
2023-06-04T10:22:46.829Z,180.07
2023-06-04T10:23:46.884Z,183.50
2023-06-04T10:24:46.886Z,194.84
2023-06-04T10:25:46.893Z,198.84
2023-06-04T10:26:46.908Z,203.41
2023-06-04T10:27:46.968Z,200.62
2023-06-04T10:28:46.968Z,196.43
2023-06-04T10:29:47.018Z,203.98
2023-06-04T10:30:47.031Z,202.47
2023-06-04T10:31:47.085Z,205.81
2023-06-04T10:32:47.107Z,206.36
2023-06-04T10:33:47.080Z,206.75
2023-06-04T10:34:47.121Z,209.08
2023-06-04T10:35:47.154Z,209.76
2023-06-04T10:36:47.208Z,206.59
2023-06-04T10:37:47.211Z,206.84
2023-06-04T10:38:47.303Z,207.85
2023-06-04T10:39:47.353Z,205.25
2023-06-04T10:40:47.433Z,205.06
2023-06-04T10:41:48.002Z,206.76
2023-06-04T10:42:47.528Z,211.60
2023-06-04T10:43:47.521Z,211.69
2023-06-04T10:44:47.555Z,215.12
2023-06-04T10:45:47.599Z,213.58
2023-06-04T10:46:47.591Z,213.74
2023-06-04T10:47:47.709Z,216.22
2023-06-04T10:48:47.661Z,218.05
2023-06-04T10:49:47.690Z,216.11
2023-06-04T10:50:47.704Z,216.34
2023-06-04T10:51:47.749Z,220.60
2023-06-04T10:52:47.775Z,222.33
2023-06-04T10:53:47.763Z,221.54
2023-06-04T10:54:47.804Z,220.34
2023-06-04T10:55:47.816Z,219.87
2023-06-04T10:56:47.858Z,216.57
2023-06-04T10:57:47.870Z,218.45
2023-06-04T10:58:47.910Z,221.30
2023-06-04T10:59:47.887Z,222.01
2023-06-04T11:00:47.920Z,221.63
2023-06-04T11:01:47.974Z,223.56
2023-06-04T11:02:48.026Z,216.29
2023-06-04T11:03:48.014Z,206.39
2023-06-04T11:04:47.994Z,211.47
2023-06-04T11:05:48.052Z,213.33
2023-06-04T11:06:48.048Z,214.83
2023-06-04T11:07:48.095Z,215.70
2023-06-04T11:08:48.091Z,218.14
2023-06-04T11:09:48.145Z,217.67
2023-06-04T11:10:48.131Z,216.60
2023-06-04T11:11:48.206Z,218.33
2023-06-04T11:12:48.266Z,220.97
2023-06-04T11:13:48.197Z,221.21
2023-06-04T11:14:48.253Z,216.90
2023-06-04T11:15:48.319Z,215.74
2023-06-04T11:16:48.307Z,220.73
2023-06-04T11:17:48.358Z,216.96
2023-06-04T11:18:48.333Z,210.43
2023-06-04T11:19:48.368Z,210.42
2023-06-04T11:20:48.398Z,213.75
2023-06-04T11:21:48.419Z,209.85
2023-06-04T11:22:48.472Z,205.97
2023-06-04T11:23:48.512Z,200.14
2023-06-04T11:24:48.479Z,191.06
2023-06-04T11:25:48.513Z,179.21
2023-06-04T11:27:00.331Z,170.90
2023-06-04T11:27:49.549Z,167.14
2023-06-04T11:28:48.550Z,170.95
2023-06-04T11:29:48.597Z,171.70
2023-06-04T11:30:48.586Z,174.07
2023-06-04T11:31:48.639Z,179.10
2023-06-04T11:32:48.661Z,183.66
2023-06-04T11:33:48.651Z,181.40
2023-06-04T11:34:48.632Z,177.04
2023-06-04T11:35:48.685Z,174.30
2023-06-04T11:36:48.714Z,181.79
2023-06-04T11:37:48.692Z,186.19
2023-06-04T11:38:48.721Z,183.17
2023-06-04T11:39:48.729Z,166.42
2023-06-04T11:40:48.747Z,134.66
2023-06-04T11:41:48.764Z,117.54
2023-06-04T11:42:48.855Z,102.83
2023-06-04T11:43:48.762Z,105.54
2023-06-04T11:44:48.795Z,118.01
2023-06-04T11:45:48.821Z,126.81
2023-06-04T11:46:48.843Z,130.96
2023-06-04T11:47:48.926Z,137.26
2023-06-04T11:48:48.925Z,142.48
2023-06-04T11:49:48.837Z,145.98
2023-06-04T11:50:48.868Z,138.12
2023-06-04T11:51:48.893Z,128.26
2023-06-04T11:52:48.935Z,122.93
2023-06-04T11:53:48.929Z,95.48
2023-06-04T11:54:48.925Z,79.17
2023-06-04T11:55:48.949Z,73.17
2023-06-04T11:56:48.967Z,75.48
2023-06-04T11:57:48.958Z,78.81
2023-06-04T11:58:48.985Z,79.31
2023-06-04T11:59:49.016Z,84.27
2023-06-04T12:00:49.048Z,92.62
2023-06-04T12:01:49.061Z,97.09
2023-06-04T12:02:49.136Z,97.95
2023-06-04T12:03:49.075Z,97.46
2023-06-04T12:04:49.083Z,99.25
2023-06-04T12:05:49.091Z,104.71
2023-06-04T12:06:49.123Z,108.06
2023-06-04T12:07:49.195Z,115.25
2023-06-04T12:08:49.158Z,124.04
2023-06-04T12:09:49.127Z,132.99
2023-06-04T12:10:49.172Z,140.32
2023-06-04T12:11:49.180Z,146.45
2023-06-04T12:12:49.180Z,158.72
2023-06-04T12:13:49.246Z,166.57
2023-06-04T12:14:49.250Z,168.71
2023-06-04T12:15:49.248Z,172.91
2023-06-04T12:16:49.354Z,178.20
2023-06-04T12:17:49.333Z,182.39
2023-06-04T12:18:49.295Z,180.19
2023-06-04T12:19:49.375Z,181.61
2023-06-04T12:20:49.348Z,186.12
2023-06-04T12:21:49.409Z,184.56
2023-06-04T12:22:49.421Z,194.63
2023-06-04T12:23:49.465Z,193.09
2023-06-04T12:24:49.423Z,183.43
2023-06-04T12:25:49.476Z,171.33
2023-06-04T12:26:49.570Z,167.60
2023-06-04T12:27:49.516Z,170.81
2023-06-04T12:28:49.550Z,170.81
2023-06-04T12:29:49.587Z,172.54